Time;durP1;ratioP1;P1;durP2;ratioP2;P2;SDS_P1;SDS_P2;PMS_P1;PMS_P2;Temp;Humidity;BMP_temperature;BMP_pressure;BME280_temperature;BME280_humidity;BME280_pressure;Samples;Min_cycle;Max_cycle;Signal;HPM_P1;HPM_P2
2021/04/25 00:00:13;;;;;;;4.05;1.30;;;3.30;91.60;;;;;;5078299;28;20028;-88
2021/04/25 00:02:39;;;;;;;1.95;1.10;;;3.40;91.60;;;;;;5078522;28;20128;-87
2021/04/25 00:05:07;;;;;;;1.70;1.05;;;3.30;91.80;;;;;;5098433;28;20017;-88
2021/04/25 00:07:33;;;;;;;;;;;3.30;91.60;;;;;;5082084;28;20020;-87
2021/04/25 00:09:58;;;;;;;2.10;0.98;;;3.20;92.30;;;;;;5103554;28;19888;-87
2021/04/25 00:12:24;;;;;;;1.67;1.08;;;3.20;92.10;;;;;;5102632;28;20024;-85
2021/04/25 00:14:50;;;;;;;2.92;1.10;;;3.10;92.30;;;;;;5089921;28;20417;-87
2021/04/25 00:17:16;;;;;;;1.77;1.10;;;3.10;91.20;;;;;;5057621;28;20089;-87
2021/04/25 00:19:42;;;;;;;1.60;1.50;;;3.00;91.40;;;;;;5058651;28;20048;-88
2021/04/25 00:22:08;;;;;;;2.45;1.08;;;3.00;91.10;;;;;;5057728;28;20031;-90
2021/04/25 00:24:33;;;;;;;1.98;1.38;;;2.90;90.90;;;;;;5073104;28;20483;-86
2021/04/25 00:27:00;;;;;;;2.13;1.42;;;2.90;91.30;;;;;;5094322;28;20025;-87
2021/04/25 00:29:26;;;;;;;1.77;1.10;;;2.90;91.90;;;;;;5084722;28;20076;-87
2021/04/25 00:31:51;;;;;;;1.85;1.20;;;2.80;91.70;;;;;;5074015;28;20025;-87
2021/04/25 00:34:17;;;;;;;1.92;1.00;;;2.80;91.90;;;;;;5062933;28;20103;-87
2021/04/25 00:36:44;;;;;;;1.70;1.02;;;2.80;91.90;;;;;;5059327;28;20036;-89
2021/04/25 00:39:10;;;;;;;1.27;1.15;;;2.70;91.40;;;;;;5062161;28;20013;-88
2021/04/25 00:41:35;;;;;;;4.45;1.55;;;2.70;91.50;;;;;;5056357;28;20477;-88
2021/04/25 00:44:02;;;;;;;1.50;0.90;;;2.70;92.00;;;;;;5070290;28;20070;-84
2021/04/25 00:46:28;;;;;;;2.55;1.45;;;2.70;92.00;;;;;;5074618;28;20378;-83
2021/04/25 00:48:54;;;;;;;0.90;0.77;;;2.70;92.20;;;;;;5075426;28;20078;-84
2021/04/25 00:51:22;;;;;;;1.58;1.00;;;2.70;92.50;;;;;;5064918;28;20024;-84
2021/04/25 00:53:49;;;;;;;1.88;1.08;;;2.70;92.60;;;;;;5075101;28;20019;-85
2021/04/25 00:56:16;;;;;;;2.55;0.90;;;2.70;92.70;;;;;;5068841;28;20016;-85
2021/04/25 00:58:42;;;;;;;3.80;2.25;;;2.70;92.10;;;;;;5087299;28;20020;-84
2021/04/25 01:01:08;;;;;;;1.80;1.50;;;2.70;92.20;;;;;;5069131;28;20012;-83
2021/04/25 01:03:34;;;;;;;1.65;0.90;;;2.60;92.20;;;;;;5070767;28;20384;-83
2021/04/25 01:06:00;;;;;;;2.70;1.10;;;2.70;92.50;;;;;;5056123;28;20024;-83
2021/04/25 01:08:26;;;;;;;2.17;1.15;;;2.60;92.00;;;;;;5071872;28;20020;-83
2021/04/25 01:10:52;;;;;;;1.83;1.33;;;2.60;92.20;;;;;;5070876;28;20029;-88
2021/04/25 01:13:19;;;;;;;1.83;1.25;;;2.60;92.10;;;;;;5075438;28;20048;-86
2021/04/25 01:15:45;;;;;;;2.33;1.27;;;2.60;92.00;;;;;;5077505;28;20020;-86
2021/04/25 01:18:11;;;;;;;2.30;0.90;;;2.60;92.40;;;;;;5079896;28;20020;-86
2021/04/25 01:20:37;;;;;;;2.17;1.27;;;2.60;93.00;;;;;;5084849;28;20036;-87
2021/04/25 01:23:03;;;;;;;1.52;0.75;;;2.60;93.00;;;;;;5093628;28;20103;-87
2021/04/25 01:25:29;;;;;;;1.45;0.90;;;2.60;92.30;;;;;;5112551;28;20119;-89
2021/04/25 01:27:55;;;;;;;2.80;2.00;;;2.50;91.90;;;;;;5103452;28;20016;-86
2021/04/25 01:30:25;;;;;;;3.63;1.15;;;2.50;92.10;;;;;;5105832;28;20079;-87
2021/04/25 01:32:51;;;;;;;2.25;1.30;;;2.50;92.40;;;;;;5096155;28;20098;-86
2021/04/25 01:35:22;;;;;;;2.20;0.98;;;2.40;92.70;;;;;;5109240;28;20023;-87
2021/04/25 01:37:53;;;;;;;2.22;1.00;;;2.40;93.20;;;;;;5100568;28;20024;-88
2021/04/25 01:40:20;;;;;;;2.53;1.27;;;2.40;93.60;;;;;;5106462;28;20099;-86
2021/04/25 01:42:46;;;;;;;2.80;1.30;;;2.40;93.50;;;;;;5105062;28;20044;-88
2021/04/25 01:45:17;;;;;;;2.30;0.98;;;2.30;93.50;;;;;;5097189;28;20028;-87
2021/04/25 01:47:49;;;;;;;3.15;1.27;;;2.30;93.20;;;;;;5103241;28;20030;-87
2021/04/25 01:50:18;;;;;;;2.33;1.40;;;2.30;93.50;;;;;;5109224;28;20031;-86
2021/04/25 01:52:44;;;;;;;4.03;1.20;;;2.20;93.40;;;;;;5094366;28;20025;-87
2021/04/25 01:55:12;;;;;;;2.08;1.10;;;2.20;93.60;;;;;;5110368;28;20419;-86
2021/04/25 01:57:38;;;;;;;;;;;2.20;93.60;;;;;;5098132;28;20347;-87
2021/04/25 02:00:09;;;;;;;3.33;1.17;;;2.30;93.70;;;;;;5097215;28;19964;-87
2021/04/25 02:02:35;;;;;;;1.10;0.85;;;2.40;93.50;;;;;;5084770;28;20338;-88
2021/04/25 02:05:02;;;;;;;2.70;1.20;;;2.40;93.40;;;;;;5099756;28;20016;-86
2021/04/25 02:07:28;;;;;;;2.17;1.35;;;2.40;93.20;;;;;;5086085;28;20812;-86
2021/04/25 02:09:54;;;;;;;0.85;0.85;;;2.40;93.60;;;;;;5094661;28;20040;-87
2021/04/25 02:12:20;;;;;;;2.70;1.60;;;2.40;93.60;;;;;;5102432;28;20048;-86
2021/04/25 02:14:46;;;;;;;1.27;1.10;;;2.50;93.60;;;;;;5108932;28;20028;-87
2021/04/25 02:17:12;;;;;;;2.05;1.30;;;2.50;93.40;;;;;;5117729;28;20035;-88
2021/04/25 02:19:38;;;;;;;1.70;1.15;;;2.40;93.30;;;;;;5098271;28;20016;-86
2021/04/25 02:22:05;;;;;;;1.80;0.88;;;2.50;93.30;;;;;;5102618;28;20044;-88
2021/04/25 02:24:31;;;;;;;3.38;1.52;;;2.50;93.40;;;;;;5077800;28;20028;-87
2021/04/25 02:26:57;;;;;;;1.77;1.00;;;2.50;93.50;;;;;;5098706;28;20024;-86
2021/04/25 02:29:23;;;;;;;1.55;1.05;;;2.50;93.10;;;;;;5101898;28;20024;-87
2021/04/25 02:31:49;;;;;;;2.10;1.20;;;2.50;93.00;;;;;;5098990;28;20016;-88
2021/04/25 02:34:15;;;;;;;2.35;1.25;;;2.50;93.00;;;;;;5097917;28;20047;-87
2021/04/25 02:36:41;;;;;;;2.25;1.20;;;2.50;93.00;;;;;;5077172;28;20031;-88
2021/04/25 02:39:07;;;;;;;2.30;1.40;;;2.50;93.10;;;;;;5101627;28;20084;-86
2021/04/25 02:41:33;;;;;;;1.27;0.95;;;2.50;93.10;;;;;;5084211;28;20792;-86
2021/04/25 02:44:00;;;;;;;1.92;1.27;;;2.40;93.10;;;;;;5100308;28;20029;-87
2021/04/25 02:46:26;;;;;;;2.15;1.42;;;2.40;93.10;;;;;;5117869;28;20062;-88
2021/04/25 02:48:51;;;;;;;2.63;1.20;;;2.40;93.00;;;;;;5118963;28;20026;-85
2021/04/25 02:51:17;;;;;;;4.80;1.05;;;2.40;92.90;;;;;;5125091;28;20099;-87
2021/04/25 02:53:43;;;;;;;1.60;1.10;;;2.40;93.30;;;;;;5102728;28;20362;-86
2021/04/25 02:56:09;;;;;;;3.25;1.27;;;2.40;93.20;;;;;;5115682;28;20032;-85
2021/04/25 02:58:35;;;;;;;2.35;1.42;;;2.40;93.20;;;;;;5115885;28;20020;-87
2021/04/25 03:01:01;;;;;;;2.03;1.23;;;2.40;93.40;;;;;;5111934;28;20008;-87
2021/04/25 03:03:26;;;;;;;1.23;0.93;;;2.50;93.80;;;;;;5107435;28;20170;-84
2021/04/25 03:05:55;;;;;;;2.10;1.20;;;2.50;93.60;;;;;;5109566;28;20020;-83
2021/04/25 03:08:22;;;;;;;2.70;1.02;;;2.60;93.20;;;;;;5111577;28;20012;-84
2021/04/25 03:10:48;;;;;;;1.07;0.93;;;2.60;93.10;;;;;;5100597;28;20028;-83
2021/04/25 03:13:14;;;;;;;1.33;0.82;;;2.60;93.20;;;;;;5109999;28;20040;-84
2021/04/25 03:15:40;;;;;;;1.58;1.25;;;2.60;93.60;;;;;;5101347;28;20023;-84
2021/04/25 03:18:06;;;;;;;1.38;1.10;;;2.60;93.20;;;;;;5110490;28;20026;-86
2021/04/25 03:20:32;;;;;;;2.20;1.13;;;2.60;93.30;;;;;;5113955;28;20058;-86
2021/04/25 03:22:58;;;;;;;2.00;1.00;;;2.70;93.60;;;;;;5108003;28;20032;-86
2021/04/25 03:25:24;;;;;;;2.55;0.90;;;2.60;92.90;;;;;;5105455;28;20024;-86
2021/04/25 03:27:50;;;;;;;2.00;1.17;;;2.70;92.90;;;;;;5106670;28;20055;-84
2021/04/25 03:30:21;;;;;;;1.30;1.20;;;2.70;93.00;;;;;;5106447;28;20016;-88
2021/04/25 03:32:47;;;;;;;2.17;1.10;;;2.70;93.50;;;;;;5100990;28;20032;-85
2021/04/25 03:35:16;;;;;;;1.85;1.00;;;2.80;93.10;;;;;;5109257;28;20103;-84
2021/04/25 03:37:42;;;;;;;1.73;0.90;;;2.80;93.10;;;;;;5099374;28;20020;-85
2021/04/25 03:40:12;;;;;;;3.20;1.50;;;2.90;93.10;;;;;;5106336;28;20020;-87
2021/04/25 03:42:39;;;;;;;2.08;1.40;;;3.00;93.30;;;;;;5080061;28;20099;-85
2021/04/25 03:45:07;;;;;;;2.38;1.10;;;3.10;93.70;;;;;;5102913;28;20031;-86
2021/04/25 03:47:33;;;;;;;1.77;1.10;;;3.20;93.90;;;;;;5097369;28;20016;-85
2021/04/25 03:49:59;;;;;;;2.00;1.33;;;3.30;93.40;;;;;;5102517;28;20080;-85
2021/04/25 03:52:24;;;;;;;1.88;1.45;;;3.30;93.20;;;;;;5105783;28;20095;-86
2021/04/25 03:54:50;;;;;;;2.58;1.02;;;3.30;93.10;;;;;;5097957;28;20227;-87
2021/04/25 03:57:16;;;;;;;2.03;0.98;;;3.30;92.60;;;;;;5092698;28;20019;-88
2021/04/25 03:59:42;;;;;;;1.48;1.00;;;3.40;92.10;;;;;;5098182;28;20028;-85
2021/04/25 04:02:08;;;;;;;2.17;1.00;;;3.20;92.00;;;;;;5098968;28;20055;-87
2021/04/25 04:04:34;;;;;;;2.38;1.55;;;3.30;92.70;;;;;;5092458;28;20016;-86
2021/04/25 04:06:59;;;;;;;1.17;0.95;;;3.40;92.30;;;;;;5079531;28;20088;-85
2021/04/25 04:09:25;;;;;;;2.53;0.90;;;3.40;92.20;;;;;;5105151;28;20465;-87
2021/04/25 04:11:51;;;;;;;2.30;1.02;;;3.40;92.30;;;;;;5113887;28;20109;-87
2021/04/25 04:14:17;;;;;;;1.48;1.02;;;3.30;91.60;;;;;;5119994;28;20024;-87
2021/04/25 04:16:43;;;;;;;0.80;0.80;;;3.40;92.20;;;;;;5112474;28;20030;-86
2021/04/25 04:19:09;;;;;;;1.55;0.90;;;3.50;91.90;;;;;;5114062;28;20024;-85
2021/04/25 04:21:35;;;;;;;1.02;0.82;;;3.50;91.80;;;;;;5081430;28;20076;-87
2021/04/25 04:24:01;;;;;;;1.20;1.08;;;3.50;92.30;;;;;;5098251;28;20032;-86
2021/04/25 04:26:27;;;;;;;1.38;1.02;;;3.70;92.40;;;;;;5105528;28;20495;-86
2021/04/25 04:28:52;;;;;;;1.40;0.98;;;3.80;92.40;;;;;;5103841;28;20028;-85
2021/04/25 04:31:18;;;;;;;1.55;0.85;;;3.80;91.60;;;;;;5112217;28;20407;-86
2021/04/25 04:33:44;;;;;;;1.63;1.27;;;3.90;92.10;;;;;;5080376;28;20423;-85
2021/04/25 04:36:10;;;;;;;1.25;1.00;;;4.10;92.10;;;;;;5104128;28;20024;-90
2021/04/25 04:38:36;;;;;;;1.23;0.85;;;4.20;92.10;;;;;;5114539;28;20020;-89
2021/04/25 04:41:02;;;;;;;2.30;0.93;;;4.40;91.30;;;;;;5104018;28;20043;-83
2021/04/25 04:43:28;;;;;;;0.90;0.60;;;4.50;91.60;;;;;;5108638;28;20017;-87
2021/04/25 04:45:54;;;;;;;0.80;0.80;;;4.50;90.30;;;;;;5103698;28;20028;-86
2021/04/25 04:48:20;;;;;;;1.27;0.85;;;4.60;90.10;;;;;;5096118;28;20073;-85
2021/04/25 04:50:46;;;;;;;1.00;0.80;;;4.70;90.40;;;;;;5094989;28;20024;-86
2021/04/25 04:53:12;;;;;;;1.40;0.80;;;4.90;90.70;;;;;;5095010;28;20077;-86
2021/04/25 04:55:38;;;;;;;1.38;1.00;;;5.00;89.10;;;;;;5105785;28;20024;-86
2021/04/25 04:58:04;;;;;;;0.70;0.52;;;5.00;87.30;;;;;;5106377;28;20071;-87
2021/04/25 05:00:29;;;;;;;0.73;0.70;;;4.80;86.40;;;;;;5077695;28;20020;-87
2021/04/25 05:02:55;;;;;;;1.38;0.82;;;4.70;86.50;;;;;;5111921;28;20499;-86
2021/04/25 05:05:21;;;;;;;0.90;0.70;;;4.50;87.40;;;;;;5104067;28;20016;-86
2021/04/25 05:07:47;;;;;;;1.23;0.50;;;4.50;86.90;;;;;;5109416;28;20027;-86
2021/04/25 05:10:13;;;;;;;2.00;0.98;;;4.50;88.00;;;;;;5105475;28;20020;-86
2021/04/25 05:12:39;;;;;;;1.20;1.13;;;4.40;87.10;;;;;;5108856;28;20027;-85
2021/04/25 05:15:06;;;;;;;0.70;0.52;;;4.30;86.70;;;;;;5094236;28;20023;-85
2021/04/25 05:17:32;;;;;;;1.50;0.80;;;4.30;86.60;;;;;;5105823;28;20028;-85
2021/04/25 05:19:58;;;;;;;2.35;0.88;;;4.30;88.40;;;;;;5104921;28;20473;-85
2021/04/25 05:22:26;;;;;;;1.17;0.80;;;4.30;87.40;;;;;;5075082;28;20036;-87
2021/04/25 05:24:51;;;;;;;1.40;1.10;;;4.40;89.40;;;;;;5088994;28;20020;-86
2021/04/25 05:27:18;;;;;;;2.05;1.75;;;4.40;88.60;;;;;;5088368;28;20033;-86
2021/04/25 05:29:43;;;;;;;1.45;1.10;;;4.30;86.60;;;;;;5071439;28;20016;-84
2021/04/25 05:32:09;;;;;;;1.23;0.77;;;4.30;87.40;;;;;;5082008;28;20059;-84
2021/04/25 05:34:35;;;;;;;3.05;0.73;;;4.40;89.40;;;;;;5077480;28;20525;-87
2021/04/25 05:37:01;;;;;;;1.38;0.90;;;4.40;86.20;;;;;;5080645;28;20073;-85
2021/04/25 05:39:27;;;;;;;1.98;0.70;;;4.40;86.90;;;;;;5079825;28;20024;-87
2021/04/25 05:41:53;;;;;;;2.03;0.70;;;4.40;87.40;;;;;;5082408;28;20480;-84
2021/04/25 05:44:19;;;;;;;1.27;0.75;;;4.40;87.80;;;;;;5079639;28;20029;-85
2021/04/25 05:46:45;;;;;;;1.45;0.73;;;4.60;87.20;;;;;;5079144;28;20028;-85
2021/04/25 05:49:11;;;;;;;0.68;0.68;;;4.70;87.30;;;;;;5080314;28;20385;-85
2021/04/25 05:51:37;;;;;;;1.02;0.82;;;4.70;86.80;;;;;;5077392;28;20150;-85
2021/04/25 05:54:03;;;;;;;8.55;2.70;;;4.70;86.70;;;;;;5080937;28;20094;-86
2021/04/25 05:56:30;;;;;;;0.73;0.65;;;4.80;87.30;;;;;;5093781;28;20520;-84
2021/04/25 05:58:57;;;;;;;2.63;0.80;;;4.90;84.40;;;;;;5094384;28;20024;-87
2021/04/25 06:01:23;;;;;;;0.55;0.55;;;4.90;85.70;;;;;;5079913;28;20036;-83
2021/04/25 06:03:49;;;;;;;2.42;0.70;;;4.80;82.40;;;;;;5092737;28;20070;-84
2021/04/25 06:06:15;;;;;;;2.45;0.88;;;4.80;83.70;;;;;;5057552;28;20032;-85
2021/04/25 06:08:42;;;;;;;1.17;0.70;;;5.00;85.70;;;;;;5065434;28;20025;-88
2021/04/25 06:11:08;;;;;;;0.77;0.75;;;5.30;86.30;;;;;;5082582;28;20023;-87
2021/04/25 06:13:34;;;;;;;2.05;0.68;;;5.60;85.40;;;;;;5079457;28;20060;-85
2021/04/25 06:16:00;;;;;;;3.03;0.65;;;5.70;80.80;;;;;;5095435;28;20021;-86
2021/04/25 06:18:26;;;;;;;1.63;0.88;;;5.50;79.90;;;;;;5091666;28;20103;-86
2021/04/25 06:20:56;;;;;;;4.35;1.00;;;5.50;79.40;;;;;;5089436;28;20036;-84
2021/04/25 06:23:22;;;;;;;3.03;1.40;;;5.40;80.00;;;;;;5093851;28;20551;-87
2021/04/25 06:25:48;;;;;;;4.47;1.00;;;5.20;79.80;;;;;;5081531;28;20028;-86
2021/04/25 06:28:14;;;;;;;2.00;0.68;;;5.20;81.70;;;;;;5061069;28;20025;-87
2021/04/25 06:30:40;;;;;;;2.40;0.60;;;5.40;83.60;;;;;;5084481;28;20024;-86
2021/04/25 06:33:06;;;;;;;0.43;0.38;;;5.40;81.20;;;;;;5095191;28;20028;-86
2021/04/25 06:35:33;;;;;;;4.47;0.85;;;5.30;78.70;;;;;;5101493;28;20009;-88
2021/04/25 06:37:59;;;;;;;0.93;0.60;;;5.30;76.90;;;;;;5064833;28;20044;-86
2021/04/25 06:40:25;;;;;;;2.63;0.88;;;5.30;79.10;;;;;;5090479;28;20028;-89
2021/04/25 06:42:51;;;;;;;3.03;1.33;;;5.40;79.60;;;;;;5059048;28;20071;-88
2021/04/25 06:45:19;;;;;;;2.90;0.82;;;5.50;80.70;;;;;;5084253;28;20017;-87
2021/04/25 06:47:46;;;;;;;1.42;1.00;;;5.70;80.10;;;;;;5068309;28;20137;-88
2021/04/25 06:50:13;;;;;;;2.95;0.70;;;5.80;78.40;;;;;;5084140;28;20070;-87
2021/04/25 06:52:41;;;;;;;7.75;0.77;;;5.80;78.80;;;;;;5084405;28;20381;-88
2021/04/25 06:55:07;;;;;;;1.80;0.60;;;5.90;78.90;;;;;;5093182;28;20384;-87
2021/04/25 06:57:34;;;;;;;1.92;0.80;;;5.90;77.30;;;;;;5079439;28;20119;-90
2021/04/25 06:59:59;;;;;;;1.02;0.70;;;6.10;78.00;;;;;;5075440;28;20066;-87
2021/04/25 07:02:25;;;;;;;2.88;0.70;;;6.30;78.70;;;;;;5083039;28;20362;-87
2021/04/25 07:04:52;;;;;;;0.55;0.50;;;6.30;75.50;;;;;;5096538;28;20027;-86
2021/04/25 07:07:18;;;;;;;3.42;0.70;;;6.20;73.40;;;;;;5098942;28;20441;-86
2021/04/25 07:09:44;;;;;;;0.52;0.52;;;6.10;73.50;;;;;;5097020;28;20039;-85
2021/04/25 07:12:09;;;;;;;2.30;1.42;;;6.00;72.80;;;;;;5069554;28;20487;-83
2021/04/25 07:14:35;;;;;;;1.73;0.73;;;6.00;72.40;;;;;;5084217;28;20489;-84
2021/04/25 07:17:01;;;;;;;3.22;1.00;;;6.10;72.70;;;;;;5073173;28;20397;-85
2021/04/25 07:19:28;;;;;;;4.53;0.70;;;6.20;72.50;;;;;;5071934;28;20474;-84
2021/04/25 07:21:54;;;;;;;3.83;0.75;;;6.10;70.70;;;;;;5094845;28;20450;-86
2021/04/25 07:24:19;;;;;;;3.53;0.55;;;6.10;71.50;;;;;;5093031;28;20028;-85
2021/04/25 07:26:45;;;;;;;2.10;1.02;;;6.10;71.60;;;;;;5092297;28;20028;-85
2021/04/25 07:29:12;;;;;;;3.80;0.93;;;6.10;69.60;;;;;;5069589;28;20028;-84
2021/04/25 07:31:38;;;;;;;5.43;2.53;;;6.30;74.10;;;;;;5069928;28;20446;-85
2021/04/25 07:34:04;;;;;;;3.13;0.32;;;6.60;74.10;;;;;;5089459;28;20111;-83
2021/04/25 07:36:30;;;;;;;2.58;0.70;;;6.70;67.60;;;;;;5077726;28;20440;-86
2021/04/25 07:38:56;;;;;;;2.42;1.17;;;6.80;68.70;;;;;;5074652;28;20068;-88
2021/04/25 07:41:22;;;;;;;2.40;0.90;;;6.90;67.60;;;;;;5076069;28;20032;-84
2021/04/25 07:43:48;;;;;;;2.95;1.00;;;6.90;68.90;;;;;;5061538;28;20481;-82
2021/04/25 07:46:15;;;;;;;3.92;0.80;;;7.00;68.60;;;;;;5094915;28;20055;-83
2021/04/25 07:48:41;;;;;;;2.42;0.90;;;6.80;63.50;;;;;;5077563;28;20028;-86
2021/04/25 07:51:07;;;;;;;1.50;0.80;;;6.70;64.00;;;;;;5081483;28;20485;-87
2021/04/25 07:53:33;;;;;;;10.60;1.48;;;6.70;68.20;;;;;;5079074;28;20028;-84
2021/04/25 07:56:00;;;;;;;2.20;0.57;;;6.70;72.00;;;;;;5096191;28;20032;-82
2021/04/25 07:58:26;;;;;;;0.93;0.63;;;6.70;71.60;;;;;;5089107;28;20035;-80
2021/04/25 08:00:52;;;;;;;4.30;1.20;;;6.50;70.40;;;;;;5077998;28;20029;-81
2021/04/25 08:03:18;;;;;;;5.63;0.82;;;6.40;71.00;;;;;;5072601;28;20017;-85
2021/04/25 08:05:44;;;;;;;4.82;1.00;;;6.30;72.40;;;;;;5068604;28;20096;-85
2021/04/25 08:08:10;;;;;;;1.70;0.77;;;6.40;73.80;;;;;;5054246;28;20539;-84
2021/04/25 08:10:36;;;;;;;6.85;1.48;;;6.60;75.70;;;;;;5062505;28;20013;-81
2021/04/25 08:13:02;;;;;;;2.78;0.80;;;6.60;71.60;;;;;;5082206;28;20049;-82
2021/04/25 08:15:28;;;;;;;4.82;1.73;;;6.60;71.60;;;;;;5085175;28;20024;-83
2021/04/25 08:17:56;;;;;;;1.17;0.70;;;6.80;72.30;;;;;;5074784;28;20025;-83
2021/04/25 08:20:23;;;;;;;2.30;1.02;;;6.80;71.50;;;;;;5073673;28;20068;-80
2021/04/25 08:22:50;;;;;;;2.33;0.75;;;7.00;72.50;;;;;;5064364;28;20040;-79
2021/04/25 08:25:16;;;;;;;1.75;1.25;;;7.00;67.10;;;;;;5094417;28;20012;-87
2021/04/25 08:27:43;;;;;;;2.13;1.30;;;7.00;68.10;;;;;;5100377;28;20031;-88
2021/04/25 08:30:09;;;;;;;4.17;1.00;;;6.90;67.50;;;;;;5082483;28;20052;-86
2021/04/25 08:32:35;;;;;;;1.30;0.77;;;6.80;66.20;;;;;;5062343;28;20131;-88
2021/04/25 08:35:03;;;;;;;4.35;0.82;;;6.80;67.70;;;;;;5085738;28;20040;-89
2021/04/25 08:37:28;;;;;;;5.32;1.35;;;6.80;67.30;;;;;;5084819;28;20012;-87
2021/04/25 08:39:54;;;;;;;4.03;1.52;;;6.80;68.90;;;;;;5077236;28;20385;-87
2021/04/25 08:42:20;;;;;;;3.90;1.70;;;6.70;70.60;;;;;;5095202;28;20030;-87
2021/04/25 08:44:46;;;;;;;1.75;0.82;;;6.80;70.20;;;;;;5087469;28;20034;-86
2021/04/25 08:47:14;;;;;;;3.78;1.58;;;7.20;72.00;;;;;;5088872;28;20020;-86
2021/04/25 08:49:41;;;;;;;3.45;1.13;;;7.50;66.80;;;;;;5068929;28;20503;-85
2021/04/25 08:52:08;;;;;;;2.45;1.10;;;7.60;64.30;;;;;;5068451;28;20063;-88
2021/04/25 08:54:33;;;;;;;2.20;1.00;;;7.50;64.80;;;;;;5085865;28;20089;-84
2021/04/25 08:56:59;;;;;;;3.40;1.27;;;7.40;65.40;;;;;;5069539;28;20024;-87
2021/04/25 08:59:25;;;;;;;2.10;0.80;;;7.10;63.30;;;;;;5078777;28;20080;-86
2021/04/25 09:01:51;;;;;;;3.15;0.90;;;7.00;65.20;;;;;;5075357;28;20507;-86
2021/04/25 09:04:17;;;;;;;1.67;1.08;;;7.10;69.20;;;;;;5091953;28;20032;-87
2021/04/25 09:07:00;;;;;;;3.55;0.80;;;7.20;68.90;;;;;;5076559;28;20025;-88
2021/04/25 09:09:46;;;;;;;4.80;1.23;;;7.20;65.90;;;;;;5089430;28;20020;-87
2021/04/25 09:12:19;;;;;;;1.45;0.80;;;7.10;65.50;;;;;;5075961;28;20112;-86
2021/04/25 09:14:47;;;;;;;3.90;1.20;;;6.60;62.90;;;;;;5060861;28;20024;-86
2021/04/25 09:17:14;;;;;;;0.57;0.50;;;6.40;66.70;;;;;;5076287;28;20029;-87
2021/04/25 09:20:00;;;;;;;2.60;0.80;;;6.20;64.80;;;;;;5057478;28;20016;-86
2021/04/25 09:22:45;;;;;;;1.75;1.05;;;6.50;66.80;;;;;;5074706;28;20047;-88
2021/04/25 09:25:14;;;;;;;2.15;1.00;;;6.70;66.30;;;;;;5089075;28;20131;-86
2021/04/25 09:27:42;;;;;;;2.47;0.77;;;6.70;64.90;;;;;;5075767;28;20378;-87
2021/04/25 09:30:12;;;;;;;1.40;0.70;;;6.60;64.10;;;;;;5058258;28;20485;-90
2021/04/25 09:32:38;;;;;;;1.98;0.82;;;6.50;64.80;;;;;;5075730;28;20493;-86
2021/04/25 09:35:15;;;;;;;1.30;0.93;;;6.40;63.90;;;;;;5076618;28;20100;-83
2021/04/25 09:37:46;;;;;;;2.60;0.90;;;6.30;64.00;;;;;;5087201;28;20023;-86
2021/04/25 09:40:23;;;;;;;3.53;1.15;;;6.40;66.40;;;;;;5077660;28;20059;-87
2021/04/25 09:43:06;;;;;;;0.80;0.60;;;6.40;63.30;;;;;;5075802;28;20032;-86
2021/04/25 09:45:33;;;;;;;1.08;0.70;;;6.60;63.50;;;;;;5066023;28;20024;-86
2021/04/25 09:48:01;;;;;;;;;;;6.80;63.90;;;;;;5069843;28;20020;-85
2021/04/25 09:50:30;;;;;;;6.00;0.98;;;7.00;69.00;;;;;;5075502;28;19904;-86
2021/04/25 09:52:56;;;;;;;2.17;1.17;;;7.50;69.10;;;;;;5076716;28;20063;-84
2021/04/25 09:55:31;;;;;;;0.40;0.30;;;7.90;63.70;;;;;;5076168;28;20036;-86
2021/04/25 09:58:07;;;;;;;1.63;0.68;;;8.20;58.10;;;;;;5080717;28;20048;-86
2021/04/25 10:00:42;;;;;;;2.50;1.10;;;8.10;59.90;;;;;;5086053;28;20047;-87
2021/04/25 10:03:10;;;;;;;3.60;0.93;;;8.20;60.80;;;;;;5061095;28;20050;-87
2021/04/25 10:05:55;;;;;;;4.40;2.05;;;8.50;59.80;;;;;;5080601;28;20634;-86
2021/04/25 10:08:37;;;;;;;2.00;1.27;;;9.20;60.20;;;;;;5063912;28;20016;-90
2021/04/25 10:11:06;;;;;;;6.20;2.17;;;9.80;62.80;;;;;;5057608;28;20485;-86
2021/04/25 10:13:34;;;;;;;5.28;1.73;;;10.10;57.00;;;;;;5075222;28;20587;-87
2021/04/25 10:16:03;;;;;;;3.65;1.60;;;10.00;59.20;;;;;;5072647;28;20031;-86
2021/04/25 10:18:29;;;;;;;4.13;1.45;;;10.50;61.90;;;;;;5066437;28;20029;-88
2021/04/25 10:20:57;;;;;;;4.70;1.65;;;10.80;61.20;;;;;;5073716;28;20408;-87
2021/04/25 10:23:23;;;;;;;;;;;10.70;55.70;;;;;;5108880;28;20020;-85
2021/04/25 10:25:50;;;;;;;3.40;1.52;;;10.60;66.70;;;;;;5080419;28;19908;-86
2021/04/25 10:28:31;;;;;;;1.17;0.80;;;10.60;59.40;;;;;;5102340;28;20028;-86
2021/04/25 10:31:05;;;;;;;1.75;0.65;;;10.40;56.50;;;;;;5082934;28;20035;-87
2021/04/25 10:33:53;;;;;;;6.00;1.40;;;10.10;58.10;;;;;;5077747;28;20028;-87
2021/04/25 10:36:23;;;;;;;8.25;1.10;;;10.20;58.20;;;;;;5101313;28;20031;-90
2021/04/25 10:38:50;;;;;;;4.70;1.27;;;9.80;57.00;;;;;;5081542;28;20493;-88
2021/04/25 10:41:27;;;;;;;8.85;1.30;;;9.60;56.10;;;;;;5086194;28;20029;-87
2021/04/25 10:44:04;;;;;;;3.38;1.20;;;9.30;56.30;;;;;;5067340;28;20039;-88
2021/04/25 10:46:55;;;;;;;3.53;1.17;;;9.30;57.40;;;;;;5077996;28;20025;-92
2021/04/25 10:49:37;;;;;;;4.78;1.48;;;9.50;57.50;;;;;;5090060;28;20024;-89
2021/04/25 10:52:23;;;;;;;5.68;0.95;;;9.40;54.60;;;;;;5065851;28;20028;-90
2021/04/25 10:55:21;;;;;;;3.55;1.30;;;9.10;57.50;;;;;;5073378;28;20027;-88
2021/04/25 10:57:52;;;;;;;2.55;1.67;;;9.10;59.10;;;;;;5090069;28;20039;-89
2021/04/25 11:00:44;;;;;;;3.72;1.27;;;9.10;54.00;;;;;;5085114;28;20115;-92
2021/04/25 11:03:20;;;;;;;2.58;0.82;;;9.10;52.90;;;;;;5055354;28;20028;-91
2021/04/25 11:05:55;;;;;;;2.47;0.95;;;9.10;53.40;;;;;;5077281;28;20020;-88
2021/04/25 11:08:31;;;;;;;2.65;1.02;;;8.70;54.50;;;;;;5073140;28;20020;-91
2021/04/25 11:11:04;;;;;;;7.15;1.10;;;8.70;54.10;;;;;;5067429;28;20020;-87
2021/04/25 11:13:33;;;;;;;2.10;0.80;;;8.50;53.50;;;;;;5056306;28;20081;-87
2021/04/25 11:16:29;;;;;;;2.95;1.63;;;8.30;56.00;;;;;;5071678;28;20013;-86
2021/04/25 11:21:41;;;;;;;6.25;1.48;;;8.50;55.50;;;;;;5101197;28;20040;-85
2021/04/25 11:24:08;;;;;;;6.80;2.00;;;8.60;57.30;;;;;;5106803;28;20030;-88
2021/04/25 11:26:43;;;;;;;2.83;1.10;;;8.90;56.90;;;;;;5112086;28;20023;-88
2021/04/25 11:29:13;;;;;;;1.00;0.90;;;9.00;53.50;;;;;;5106635;28;20020;-85
2021/04/25 11:31:45;;;;;;;3.67;1.58;;;8.90;53.00;;;;;;5104659;28;20025;-85
2021/04/25 11:34:28;;;;;;;5.75;1.88;;;8.70;53.70;;;;;;5119941;28;20019;-90
2021/04/25 11:37:19;;;;;;;2.85;1.67;;;8.90;55.10;;;;;;5107059;28;20023;-88
2021/04/25 11:39:54;;;;;;;2.50;1.23;;;9.10;54.30;;;;;;5106289;28;20035;-84
2021/04/25 11:42:39;;;;;;;1.70;1.13;;;9.20;54.80;;;;;;5094732;28;20035;-88
2021/04/25 11:45:30;;;;;;;10.10;1.63;;;8.80;51.20;;;;;;5083955;28;20108;-88
2021/04/25 11:48:05;;;;;;;6.18;1.42;;;8.40;53.70;;;;;;5097396;28;20040;-87
2021/04/25 11:50:38;;;;;;;3.80;1.38;;;8.30;55.50;;;;;;5100114;28;20028;-84
2021/04/25 11:53:04;;;;;;;2.40;1.42;;;8.30;54.60;;;;;;5084782;28;20083;-82
2021/04/25 11:55:32;;;;;;;3.60;1.48;;;8.30;55.10;;;;;;5099230;28;20027;-81
2021/04/25 11:57:57;;;;;;;;;;;8.50;55.90;;;;;;5099355;28;20387;-84
2021/04/25 12:00:30;;;;;;;1.48;1.20;;;8.70;62.40;;;;;;5114627;28;19943;-82
2021/04/25 12:03:00;;;;;;;2.88;0.90;;;8.70;53.00;;;;;;5108777;28;20035;-82
2021/04/25 12:05:31;;;;;;;2.33;0.85;;;8.70;49.80;;;;;;5092065;28;20027;-81
2021/04/25 12:08:03;;;;;;;1.15;0.82;;;8.50;51.50;;;;;;5069114;28;20024;-79
2021/04/25 12:10:40;;;;;;;7.38;1.67;;;8.40;51.30;;;;;;5103617;28;20024;-79
2021/04/25 12:13:14;;;;;;;6.32;1.45;;;8.20;54.10;;;;;;5091702;28;20102;-81
2021/04/25 12:15:56;;;;;;;4.85;1.77;;;8.50;56.70;;;;;;5112265;28;20034;-80
2021/04/25 12:18:27;;;;;;;1.23;0.85;;;8.50;53.40;;;;;;5116332;28;20011;-82
2021/04/25 12:20:57;;;;;;;2.92;1.92;;;8.30;51.60;;;;;;5117743;28;20130;-80
2021/04/25 12:23:31;;;;;;;4.47;1.40;;;8.30;51.70;;;;;;5110607;28;20036;-81
2021/04/25 12:25:58;;;;;;;6.05;1.55;;;8.40;51.00;;;;;;5111060;28;20865;-81
2021/04/25 12:28:45;;;;;;;3.33;1.35;;;8.40;52.60;;;;;;5110206;28;20047;-78
2021/04/25 12:31:12;;;;;;;5.50;1.75;;;8.50;55.60;;;;;;5107073;28;20365;-80
2021/04/25 12:33:43;;;;;;;3.70;2.20;;;8.60;55.60;;;;;;5110447;28;20030;-80
2021/04/25 12:36:14;;;;;;;5.88;1.60;;;8.50;51.90;;;;;;5111736;28;20103;-79
2021/04/25 12:38:43;;;;;;;5.38;1.48;;;8.40;54.70;;;;;;5083851;28;20027;-80
2021/04/25 12:41:14;;;;;;;5.90;1.60;;;8.40;54.20;;;;;;5111700;28;20024;-80
2021/04/25 12:43:46;;;;;;;4.20;1.50;;;8.60;55.60;;;;;;5106353;28;20015;-81
2021/04/25 12:46:17;;;;;;;3.72;1.70;;;8.70;57.00;;;;;;5111703;28;20024;-80
2021/04/25 12:48:47;;;;;;;1.75;1.58;;;8.80;56.50;;;;;;5107816;28;20020;-82
2021/04/25 12:51:22;;;;;;;3.88;2.40;;;8.80;53.70;;;;;;5111547;28;20108;-81
2021/04/25 12:53:51;;;;;;;7.15;1.95;;;8.70;53.30;;;;;;5107923;28;20020;-81
2021/04/25 12:56:30;;;;;;;1.88;1.35;;;8.60;55.90;;;;;;5094466;28;20022;-78
2021/04/25 12:59:00;;;;;;;2.47;1.25;;;8.60;53.90;;;;;;5093998;28;20024;-81
2021/04/25 13:01:27;;;;;;;7.45;1.95;;;8.40;52.50;;;;;;5094005;28;20028;-81
2021/04/25 13:03:54;;;;;;;4.38;1.30;;;8.20;54.00;;;;;;5095837;28;20059;-80
2021/04/25 13:06:38;;;;;;;6.05;1.98;;;8.20;53.60;;;;;;5107234;28;20026;-82